Terminal Aerodrome Forecast
Issued by NWS

Home | Current Version | Previous Version | Text Only | Print | Product List | Glossary On
Versions: 1 2 3 4 5 6 7 8 9 10 11 12 13 14 15 16 17 18 19 20 21 22 23 24 25 26 27 28 29 30
000
FTUS46 KLOX 231400 AAC
TAFLAX
TAF AMD
KLAX 231450Z 2315/2418 VRB03KT 5SM BR BCFG BKN008
     FM231700 25007KT P6SM SKC
     FM232100 25014KT P6SM SKC
     FM240400 25007KT P6SM SKC
     FM241000 VRB03KT P6SM BKN007
     FM241700 VRB03KT P6SM SKC=

USA.gov is the U.S. government's official web portal to all federal, state and local government web resources and services.